Decoded Metar for YBRM (BROOME in AUSTRALIA) (IATA:BME) | Meteo·Mobile Aviation Weather
aviador You're here:

YBRM Decoded Metar

BROOME in AUSTRALIA
Report Time2018-08-18 04:30:00
UTC Time2018-08-18 05:08:12
Flight Rules vfr VFR
Wind160° at 09 kt
W.Decomp.*RWY 10: 4.8 kt HW 7.6 kt RCW
W.Rank160° ranks 20
Current wind is above 160° avg. (6.9)
Visibility9999 m
Phenomena:N/A
Clouds:N/A
Expected CloudBase > 13,200 ft AGL from Temp-Dew spread
CeilingNone
Temp31°C (ISA +16)
Dew Point-2°C (12% RH)
Heat Index28.9°C
AAT25.5°C
QNH1013 hPa
Density Alt1,978 ft
Elevation56 ft
Report Wrong Elevation
Raw Report
YBRM 180430Z AUTO 16009KT 9999 // NCD 31/M02 Q1013
RF00.0/000.0=

Extra information for YBRM:More info

Metar Taf Metar & Taf Last 4 Metars F.Rules Stats Wind Profile Meteogram Temp Stats Airport Information Weather charts Add Link Nearby VenuesMetar ALERT Operation Metar Decoded Social comments